sensor_id;sensor_type;location;lat;lon;timestamp;P1;durP1;ratioP1;P2;durP2;ratioP2
13605;SDS011;6874;52.084;5.090;2022-07-06T00:01:55;31.60;;;30.63;;
13605;SDS011;6874;52.084;5.090;2022-07-06T00:04:21;30.73;;;29.77;;
13605;SDS011;6874;52.084;5.090;2022-07-06T00:06:47;29.07;;;28.13;;
13605;SDS011;6874;52.084;5.090;2022-07-06T00:09:13;26.90;;;26.07;;
13605;SDS011;6874;52.084;5.090;2022-07-06T00:11:39;25.47;;;24.67;;
13605;SDS011;6874;52.084;5.090;2022-07-06T00:14:04;27.07;;;26.20;;
13605;SDS011;6874;52.084;5.090;2022-07-06T00:16:31;22.73;;;22.03;;
13605;SDS011;6874;52.084;5.090;2022-07-06T00:18:56;22.87;;;22.17;;
13605;SDS011;6874;52.084;5.090;2022-07-06T00:21:22;23.33;;;22.63;;
13605;SDS011;6874;52.084;5.090;2022-07-06T00:23:48;22.97;;;22.27;;
13605;SDS011;6874;52.084;5.090;2022-07-06T00:26:14;21.93;;;21.23;;
13605;SDS011;6874;52.084;5.090;2022-07-06T00:28:39;23.83;;;23.13;;
13605;SDS011;6874;52.084;5.090;2022-07-06T00:31:05;24.80;;;24.00;;
13605;SDS011;6874;52.084;5.090;2022-07-06T00:33:31;23.50;;;22.77;;
13605;SDS011;6874;52.084;5.090;2022-07-06T00:35:56;23.40;;;22.70;;
13605;SDS011;6874;52.084;5.090;2022-07-06T00:38:23;22.13;;;21.43;;
13605;SDS011;6874;52.084;5.090;2022-07-06T00:40:48;24.70;;;23.93;;
13605;SDS011;6874;52.084;5.090;2022-07-06T00:43:14;23.20;;;22.50;;
13605;SDS011;6874;52.084;5.090;2022-07-06T00:45:40;24.57;;;23.80;;
13605;SDS011;6874;52.084;5.090;2022-07-06T00:48:05;23.20;;;22.50;;
13605;SDS011;6874;52.084;5.090;2022-07-06T00:50:31;24.33;;;23.57;;
13605;SDS011;6874;52.084;5.090;2022-07-06T00:53:02;24.37;;;23.60;;
13605;SDS011;6874;52.084;5.090;2022-07-06T00:55:30;23.80;;;23.10;;
13605;SDS011;6874;52.084;5.090;2022-07-06T00:58:00;22.67;;;21.97;;
13605;SDS011;6874;52.084;5.090;2022-07-06T01:00:27;20.37;;;19.77;;
13605;SDS011;6874;52.084;5.090;2022-07-06T01:02:53;20.00;;;19.40;;
13605;SDS011;6874;52.084;5.090;2022-07-06T01:05:19;21.83;;;21.13;;
13605;SDS011;6874;52.084;5.090;2022-07-06T01:07:46;19.30;;;18.70;;
13605;SDS011;6874;52.084;5.090;2022-07-06T01:10:14;20.37;;;19.73;;
13605;SDS011;6874;52.084;5.090;2022-07-06T01:12:41;18.37;;;17.80;;
13605;SDS011;6874;52.084;5.090;2022-07-06T01:15:09;19.07;;;18.47;;
13605;SDS011;6874;52.084;5.090;2022-07-06T01:17:38;18.27;;;17.73;;
13605;SDS011;6874;52.084;5.090;2022-07-06T01:20:08;17.63;;;17.10;;
13605;SDS011;6874;52.084;5.090;2022-07-06T01:22:35;18.00;;;17.47;;
13605;SDS011;6874;52.084;5.090;2022-07-06T01:25:00;16.37;;;15.87;;
13605;SDS011;6874;52.084;5.090;2022-07-06T01:27:26;17.33;;;16.83;;
13605;SDS011;6874;52.084;5.090;2022-07-06T01:29:51;17.13;;;16.63;;
13605;SDS011;6874;52.084;5.090;2022-07-06T01:32:17;15.77;;;15.27;;
13605;SDS011;6874;52.084;5.090;2022-07-06T01:34:42;15.33;;;14.87;;
13605;SDS011;6874;52.084;5.090;2022-07-06T01:37:08;15.23;;;14.77;;
13605;SDS011;6874;52.084;5.090;2022-07-06T01:39:33;13.53;;;13.13;;
13605;SDS011;6874;52.084;5.090;2022-07-06T01:41:59;15.53;;;15.03;;
13605;SDS011;6874;52.084;5.090;2022-07-06T01:44:24;15.13;;;14.67;;
13605;SDS011;6874;52.084;5.090;2022-07-06T01:46:50;14.20;;;13.80;;
13605;SDS011;6874;52.084;5.090;2022-07-06T01:49:15;13.70;;;13.30;;
13605;SDS011;6874;52.084;5.090;2022-07-06T01:51:41;13.93;;;13.53;;
13605;SDS011;6874;52.084;5.090;2022-07-06T01:54:07;12.30;;;11.93;;
13605;SDS011;6874;52.084;5.090;2022-07-06T01:56:32;13.87;;;13.47;;
13605;SDS011;6874;52.084;5.090;2022-07-06T01:58:58;13.70;;;13.30;;
13605;SDS011;6874;52.084;5.090;2022-07-06T02:01:23;15.47;;;15.00;;
13605;SDS011;6874;52.084;5.090;2022-07-06T02:03:49;14.87;;;14.43;;
13605;SDS011;6874;52.084;5.090;2022-07-06T02:06:14;16.17;;;15.67;;
13605;SDS011;6874;52.084;5.090;2022-07-06T02:08:40;16.67;;;16.17;;
13605;SDS011;6874;52.084;5.090;2022-07-06T02:11:07;16.57;;;16.07;;
13605;SDS011;6874;52.084;5.090;2022-07-06T02:13:34;20.40;;;19.80;;
13605;SDS011;6874;52.084;5.090;2022-07-06T02:16:00;21.30;;;20.60;;
13605;SDS011;6874;52.084;5.090;2022-07-06T02:18:26;20.87;;;20.27;;
13605;SDS011;6874;52.084;5.090;2022-07-06T02:20:52;21.27;;;20.57;;
13605;SDS011;6874;52.084;5.090;2022-07-06T02:23:17;24.33;;;23.53;;
13605;SDS011;6874;52.084;5.090;2022-07-06T02:25:43;26.43;;;25.63;;
13605;SDS011;6874;52.084;5.090;2022-07-06T02:28:09;28.10;;;27.20;;
13605;SDS011;6874;52.084;5.090;2022-07-06T02:30:34;28.57;;;27.67;;
13605;SDS011;6874;52.084;5.090;2022-07-06T02:33:00;29.10;;;28.20;;
13605;SDS011;6874;52.084;5.090;2022-07-06T02:35:26;30.07;;;29.13;;
13605;SDS011;6874;52.084;5.090;2022-07-06T02:37:51;31.30;;;30.30;;
13605;SDS011;6874;52.084;5.090;2022-07-06T02:40:17;34.37;;;33.27;;
13605;SDS011;6874;52.084;5.090;2022-07-06T02:42:42;35.33;;;34.23;;
13605;SDS011;6874;52.084;5.090;2022-07-06T02:45:08;32.80;;;31.80;;
13605;SDS011;6874;52.084;5.090;2022-07-06T02:47:34;33.63;;;32.53;;
13605;SDS011;6874;52.084;5.090;2022-07-06T02:50:00;34.93;;;33.83;;
13605;SDS011;6874;52.084;5.090;2022-07-06T02:52:26;33.63;;;32.53;;
13605;SDS011;6874;52.084;5.090;2022-07-06T02:54:51;33.67;;;32.60;;
13605;SDS011;6874;52.084;5.090;2022-07-06T02:57:18;36.47;;;35.30;;
13605;SDS011;6874;52.084;5.090;2022-07-06T02:59:44;32.73;;;31.70;;
13605;SDS011;6874;52.084;5.090;2022-07-06T03:02:10;34.83;;;33.73;;
13605;SDS011;6874;52.084;5.090;2022-07-06T03:04:37;34.67;;;33.57;;
13605;SDS011;6874;52.084;5.090;2022-07-06T03:07:02;35.33;;;34.23;;
13605;SDS011;6874;52.084;5.090;2022-07-06T03:09:28;32.73;;;31.70;;
13605;SDS011;6874;52.084;5.090;2022-07-06T03:11:54;29.87;;;28.93;;
13605;SDS011;6874;52.084;5.090;2022-07-06T03:14:19;31.83;;;30.83;;
13605;SDS011;6874;52.084;5.090;2022-07-06T03:16:45;30.03;;;29.10;;
13605;SDS011;6874;52.084;5.090;2022-07-06T03:19:10;29.53;;;28.63;;
13605;SDS011;6874;52.084;5.090;2022-07-06T03:21:36;26.90;;;26.07;;
13605;SDS011;6874;52.084;5.090;2022-07-06T03:24:02;27.77;;;26.87;;
13605;SDS011;6874;52.084;5.090;2022-07-06T03:26:27;24.10;;;23.33;;
13605;SDS011;6874;52.084;5.090;2022-07-06T03:28:53;23.43;;;22.73;;
13605;SDS011;6874;52.084;5.090;2022-07-06T03:31:18;28.50;;;27.60;;
13605;SDS011;6874;52.084;5.090;2022-07-06T03:33:44;25.83;;;25.03;;
13605;SDS011;6874;52.084;5.090;2022-07-06T03:36:10;25.90;;;25.10;;
13605;SDS011;6874;52.084;5.090;2022-07-06T03:38:35;25.03;;;24.23;;
13605;SDS011;6874;52.084;5.090;2022-07-06T03:41:01;22.43;;;21.73;;
13605;SDS011;6874;52.084;5.090;2022-07-06T03:43:27;22.60;;;21.90;;
13605;SDS011;6874;52.084;5.090;2022-07-06T03:45:53;24.70;;;23.90;;
13605;SDS011;6874;52.084;5.090;2022-07-06T03:48:18;21.60;;;20.90;;
13605;SDS011;6874;52.084;5.090;2022-07-06T03:50:44;20.23;;;19.63;;
13605;SDS011;6874;52.084;5.090;2022-07-06T03:53:09;20.73;;;20.13;;
13605;SDS011;6874;52.084;5.090;2022-07-06T03:55:35;20.90;;;20.30;;
13605;SDS011;6874;52.084;5.090;2022-07-06T03:58:00;20.10;;;19.50;;
13605;SDS011;6874;52.084;5.090;2022-07-06T04:00:26;19.30;;;18.70;;
13605;SDS011;6874;52.084;5.090;2022-07-06T04:02:51;19.97;;;19.37;;
13605;SDS011;6874;52.084;5.090;2022-07-06T04:05:17;18.77;;;18.17;;
13605;SDS011;6874;52.084;5.090;2022-07-06T04:07:46;18.17;;;17.60;;
13605;SDS011;6874;52.084;5.090;2022-07-06T04:10:12;18.10;;;17.57;;
13605;SDS011;6874;52.084;5.090;2022-07-06T04:12:44;17.37;;;16.87;;
13605;SDS011;6874;52.084;5.090;2022-07-06T04:15:10;18.70;;;18.10;;
13605;SDS011;6874;52.084;5.090;2022-07-06T04:17:37;16.93;;;16.43;;
13605;SDS011;6874;52.084;5.090;2022-07-06T04:20:22;17.63;;;17.10;;
13605;SDS011;6874;52.084;5.090;2022-07-06T04:22:48;15.20;;;14.73;;
13605;SDS011;6874;52.084;5.090;2022-07-06T04:25:14;17.37;;;16.87;;
13605;SDS011;6874;52.084;5.090;2022-07-06T04:27:40;19.70;;;19.10;;
13605;SDS011;6874;52.084;5.090;2022-07-06T04:30:06;16.40;;;15.90;;
13605;SDS011;6874;52.084;5.090;2022-07-06T04:32:32;16.87;;;16.37;;
13605;SDS011;6874;52.084;5.090;2022-07-06T04:34:58;17.53;;;17.03;;
13605;SDS011;6874;52.084;5.090;2022-07-06T04:37:24;17.63;;;17.10;;
13605;SDS011;6874;52.084;5.090;2022-07-06T04:39:49;19.23;;;18.63;;
13605;SDS011;6874;52.084;5.090;2022-07-06T04:42:15;17.57;;;17.07;;
13605;SDS011;6874;52.084;5.090;2022-07-06T04:44:40;16.70;;;16.20;;
13605;SDS011;6874;52.084;5.090;2022-07-06T04:47:06;17.13;;;16.63;;
13605;SDS011;6874;52.084;5.090;2022-07-06T04:49:31;17.07;;;16.57;;
13605;SDS011;6874;52.084;5.090;2022-07-06T04:51:57;16.00;;;15.50;;
13605;SDS011;6874;52.084;5.090;2022-07-06T04:54:23;15.87;;;15.37;;
13605;SDS011;6874;52.084;5.090;2022-07-06T04:56:49;16.87;;;16.37;;
13605;SDS011;6874;52.084;5.090;2022-07-06T04:59:14;16.77;;;16.27;;
13605;SDS011;6874;52.084;5.090;2022-07-06T05:01:40;16.20;;;15.70;;
13605;SDS011;6874;52.084;5.090;2022-07-06T05:04:06;15.93;;;15.43;;
13605;SDS011;6874;52.084;5.090;2022-07-06T05:06:32;16.97;;;16.47;;
13605;SDS011;6874;52.084;5.090;2022-07-06T05:08:57;17.23;;;16.73;;
13605;SDS011;6874;52.084;5.090;2022-07-06T05:11:24;19.37;;;18.77;;
13605;SDS011;6874;52.084;5.090;2022-07-06T05:13:50;15.30;;;14.80;;
13605;SDS011;6874;52.084;5.090;2022-07-06T05:16:16;16.07;;;15.57;;
13605;SDS011;6874;52.084;5.090;2022-07-06T05:18:41;17.70;;;17.20;;
13605;SDS011;6874;52.084;5.090;2022-07-06T05:21:07;16.60;;;16.10;;
13605;SDS011;6874;52.084;5.090;2022-07-06T05:23:32;18.57;;;17.97;;
13605;SDS011;6874;52.084;5.090;2022-07-06T05:25:58;21.30;;;20.63;;
13605;SDS011;6874;52.084;5.090;2022-07-06T05:28:23;19.60;;;19.00;;
13605;SDS011;6874;52.084;5.090;2022-07-06T05:30:49;22.43;;;21.73;;
13605;SDS011;6874;52.084;5.090;2022-07-06T05:33:14;22.00;;;21.30;;
13605;SDS011;6874;52.084;5.090;2022-07-06T05:35:40;23.83;;;23.13;;
13605;SDS011;6874;52.084;5.090;2022-07-06T05:38:05;21.03;;;20.40;;
13605;SDS011;6874;52.084;5.090;2022-07-06T05:40:31;20.43;;;19.83;;
13605;SDS011;6874;52.084;5.090;2022-07-06T05:42:56;21.03;;;20.40;;
13605;SDS011;6874;52.084;5.090;2022-07-06T05:45:22;22.53;;;21.83;;
13605;SDS011;6874;52.084;5.090;2022-07-06T05:47:48;25.43;;;24.63;;
13605;SDS011;6874;52.084;5.090;2022-07-06T05:50:32;28.63;;;27.73;;
13605;SDS011;6874;52.084;5.090;2022-07-06T05:53:02;27.87;;;26.97;;
13605;SDS011;6874;52.084;5.090;2022-07-06T05:55:28;30.90;;;29.93;;
13605;SDS011;6874;52.084;5.090;2022-07-06T05:57:54;36.40;;;35.23;;
13605;SDS011;6874;52.084;5.090;2022-07-06T06:00:21;34.80;;;33.70;;
13605;SDS011;6874;52.084;5.090;2022-07-06T06:02:47;35.20;;;34.10;;
13605;SDS011;6874;52.084;5.090;2022-07-06T06:05:13;32.73;;;31.70;;
13605;SDS011;6874;52.084;5.090;2022-07-06T06:07:40;33.07;;;32.03;;
13605;SDS011;6874;52.084;5.090;2022-07-06T06:10:07;30.23;;;29.30;;
13605;SDS011;6874;52.084;5.090;2022-07-06T06:12:34;28.00;;;27.10;;
13605;SDS011;6874;52.084;5.090;2022-07-06T06:14:59;29.13;;;28.23;;
13605;SDS011;6874;52.084;5.090;2022-07-06T06:17:25;28.23;;;27.33;;
13605;SDS011;6874;52.084;5.090;2022-07-06T06:19:51;25.87;;;25.07;;
13605;SDS011;6874;52.084;5.090;2022-07-06T06:22:16;26.77;;;25.93;;
13605;SDS011;6874;52.084;5.090;2022-07-06T06:24:42;27.57;;;26.70;;
13605;SDS011;6874;52.084;5.090;2022-07-06T06:27:07;26.90;;;26.07;;
13605;SDS011;6874;52.084;5.090;2022-07-06T06:29:33;23.90;;;23.17;;
13605;SDS011;6874;52.084;5.090;2022-07-06T06:31:58;23.30;;;22.60;;
13605;SDS011;6874;52.084;5.090;2022-07-06T06:34:24;27.10;;;26.23;;
13605;SDS011;6874;52.084;5.090;2022-07-06T06:36:49;27.87;;;26.97;;
13605;SDS011;6874;52.084;5.090;2022-07-06T06:39:15;31.60;;;30.60;;
13605;SDS011;6874;52.084;5.090;2022-07-06T06:41:41;27.03;;;26.17;;
13605;SDS011;6874;52.084;5.090;2022-07-06T06:44:06;27.50;;;26.63;;
13605;SDS011;6874;52.084;5.090;2022-07-06T06:46:32;31.27;;;30.23;;
13605;SDS011;6874;52.084;5.090;2022-07-06T06:48:58;36.23;;;35.07;;
13605;SDS011;6874;52.084;5.090;2022-07-06T06:51:23;34.90;;;33.80;;
13605;SDS011;6874;52.084;5.090;2022-07-06T06:53:49;47.93;;;46.37;;
13605;SDS011;6874;52.084;5.090;2022-07-06T06:56:14;46.67;;;45.13;;
13605;SDS011;6874;52.084;5.090;2022-07-06T06:58:40;50.80;;;49.13;;
13605;SDS011;6874;52.084;5.090;2022-07-06T07:01:05;50.93;;;49.27;;
13605;SDS011;6874;52.084;5.090;2022-07-06T07:03:31;57.30;;;55.43;;
13605;SDS011;6874;52.084;5.090;2022-07-06T07:05:57;47.73;;;46.17;;
13605;SDS011;6874;52.084;5.090;2022-07-06T07:08:23;47.93;;;46.37;;
13605;SDS011;6874;52.084;5.090;2022-07-06T07:10:48;49.30;;;47.70;;
13605;SDS011;6874;52.084;5.090;2022-07-06T07:13:14;51.63;;;49.97;;
13605;SDS011;6874;52.084;5.090;2022-07-06T07:15:40;55.83;;;54.03;;
13605;SDS011;6874;52.084;5.090;2022-07-06T07:18:05;56.00;;;54.20;;
13605;SDS011;6874;52.084;5.090;2022-07-06T07:20:31;56.53;;;54.70;;
13605;SDS011;6874;52.084;5.090;2022-07-06T07:22:58;60.00;;;58.07;;
13605;SDS011;6874;52.084;5.090;2022-07-06T07:25:24;57.73;;;55.83;;
13605;SDS011;6874;52.084;5.090;2022-07-06T07:27:50;61.80;;;59.80;;
13605;SDS011;6874;52.084;5.090;2022-07-06T07:30:15;58.73;;;56.83;;
13605;SDS011;6874;52.084;5.090;2022-07-06T07:32:41;55.23;;;53.43;;
13605;SDS011;6874;52.084;5.090;2022-07-06T07:35:07;57.17;;;55.30;;
13605;SDS011;6874;52.084;5.090;2022-07-06T07:37:33;52.57;;;50.87;;
13605;SDS011;6874;52.084;5.090;2022-07-06T07:39:58;45.00;;;43.57;;
13605;SDS011;6874;52.084;5.090;2022-07-06T07:42:24;41.90;;;40.53;;
13605;SDS011;6874;52.084;5.090;2022-07-06T07:44:49;38.23;;;37.00;;
13605;SDS011;6874;52.084;5.090;2022-07-06T07:47:15;35.03;;;33.90;;
13605;SDS011;6874;52.084;5.090;2022-07-06T07:49:41;33.23;;;32.13;;
13605;SDS011;6874;52.084;5.090;2022-07-06T07:52:06;26.83;;;26.00;;
13605;SDS011;6874;52.084;5.090;2022-07-06T07:54:32;27.83;;;26.93;;
13605;SDS011;6874;52.084;5.090;2022-07-06T07:56:58;32.37;;;31.37;;
13605;SDS011;6874;52.084;5.090;2022-07-06T07:59:24;32.57;;;31.53;;
13605;SDS011;6874;52.084;5.090;2022-07-06T08:01:50;36.17;;;34.97;;
13605;SDS011;6874;52.084;5.090;2022-07-06T08:04:16;37.17;;;35.97;;
13605;SDS011;6874;52.084;5.090;2022-07-06T08:06:42;46.00;;;44.50;;
13605;SDS011;6874;52.084;5.090;2022-07-06T08:09:07;56.13;;;54.27;;
13605;SDS011;6874;52.084;5.090;2022-07-06T08:11:33;72.90;;;70.50;;
13605;SDS011;6874;52.084;5.090;2022-07-06T08:14:02;81.57;;;78.87;;
13605;SDS011;6874;52.084;5.090;2022-07-06T08:16:28;90.23;;;87.23;;
13605;SDS011;6874;52.084;5.090;2022-07-06T08:18:54;88.57;;;85.60;;
13605;SDS011;6874;52.084;5.090;2022-07-06T08:21:20;82.00;;;79.27;;
13605;SDS011;6874;52.084;5.090;2022-07-06T08:23:45;74.10;;;71.63;;
13605;SDS011;6874;52.084;5.090;2022-07-06T08:26:11;74.23;;;71.77;;
13605;SDS011;6874;52.084;5.090;2022-07-06T08:28:36;63.47;;;61.33;;
13605;SDS011;6874;52.084;5.090;2022-07-06T08:31:02;62.90;;;60.83;;
13605;SDS011;6874;52.084;5.090;2022-07-06T08:33:28;57.43;;;55.53;;
13605;SDS011;6874;52.084;5.090;2022-07-06T08:35:53;56.80;;;54.90;;
13605;SDS011;6874;52.084;5.090;2022-07-06T08:38:19;55.63;;;53.77;;
13605;SDS011;6874;52.084;5.090;2022-07-06T08:40:48;61.40;;;59.33;;
13605;SDS011;6874;52.084;5.090;2022-07-06T08:43:15;59.77;;;57.77;;
13605;SDS011;6874;52.084;5.090;2022-07-06T08:45:41;54.03;;;52.23;;
13605;SDS011;6874;52.084;5.090;2022-07-06T08:48:09;50.77;;;49.10;;
13605;SDS011;6874;52.084;5.090;2022-07-06T08:50:35;48.03;;;46.43;;
13605;SDS011;6874;52.084;5.090;2022-07-06T08:53:02;48.63;;;47.03;;
13605;SDS011;6874;52.084;5.090;2022-07-06T08:55:28;46.90;;;45.37;;
13605;SDS011;6874;52.084;5.090;2022-07-06T08:57:54;44.27;;;42.83;;
13605;SDS011;6874;52.084;5.090;2022-07-06T09:00:21;43.37;;;41.93;;
13605;SDS011;6874;52.084;5.090;2022-07-06T09:02:48;41.37;;;40.00;;
13605;SDS011;6874;52.084;5.090;2022-07-06T09:05:15;34.40;;;33.30;;
13605;SDS011;6874;52.084;5.090;2022-07-06T09:07:42;27.23;;;26.33;;
13605;SDS011;6874;52.084;5.090;2022-07-06T09:10:10;19.13;;;18.53;;
13605;SDS011;6874;52.084;5.090;2022-07-06T09:12:37;18.23;;;17.63;;
13605;SDS011;6874;52.084;5.090;2022-07-06T09:15:02;13.80;;;13.40;;
13605;SDS011;6874;52.084;5.090;2022-07-06T09:17:28;11.70;;;11.40;;
13605;SDS011;6874;52.084;5.090;2022-07-06T09:19:55;12.30;;;11.90;;
13605;SDS011;6874;52.084;5.090;2022-07-06T09:22:29;11.37;;;11.03;;
13605;SDS011;6874;52.084;5.090;2022-07-06T09:25:07;12.17;;;11.77;;
13605;SDS011;6874;52.084;5.090;2022-07-06T09:27:40;11.87;;;11.50;;
13605;SDS011;6874;52.084;5.090;2022-07-06T09:30:08;12.80;;;12.40;;
13605;SDS011;6874;52.084;5.090;2022-07-06T09:32:42;17.37;;;16.83;;
13605;SDS011;6874;52.084;5.090;2022-07-06T09:35:29;27.03;;;26.17;;
13605;SDS011;6874;52.084;5.090;2022-07-06T09:38:07;45.30;;;43.80;;
13605;SDS011;6874;52.084;5.090;2022-07-06T09:40:35;64.87;;;62.67;;
13605;SDS011;6874;52.084;5.090;2022-07-06T09:43:09;81.77;;;78.97;;
13605;SDS011;6874;52.084;5.090;2022-07-06T09:45:36;74.43;;;71.90;;
13605;SDS011;6874;52.084;5.090;2022-07-06T09:48:09;71.30;;;68.87;;
13605;SDS011;6874;52.084;5.090;2022-07-06T09:50:40;68.83;;;66.50;;
13605;SDS011;6874;52.084;5.090;2022-07-06T09:53:11;66.57;;;64.27;;
13605;SDS011;6874;52.084;5.090;2022-07-06T09:55:37;68.60;;;66.23;;
13605;SDS011;6874;52.084;5.090;2022-07-06T09:58:03;75.70;;;73.07;;
13605;SDS011;6874;52.084;5.090;2022-07-06T10:00:29;95.20;;;91.83;;
13605;SDS011;6874;52.084;5.090;2022-07-06T10:02:55;107.53;;;103.77;;
13605;SDS011;6874;52.084;5.090;2022-07-06T10:05:21;96.57;;;93.23;;
13605;SDS011;6874;52.084;5.090;2022-07-06T10:07:55;83.93;;;81.07;;
13605;SDS011;6874;52.084;5.090;2022-07-06T10:10:26;71.47;;;69.07;;
13605;SDS011;6874;52.084;5.090;2022-07-06T10:12:53;71.17;;;68.73;;
13605;SDS011;6874;52.084;5.090;2022-07-06T10:15:21;73.63;;;71.17;;
13605;SDS011;6874;52.084;5.090;2022-07-06T10:17:48;71.93;;;69.50;;
13605;SDS011;6874;52.084;5.090;2022-07-06T10:20:15;79.27;;;76.60;;
13605;SDS011;6874;52.084;5.090;2022-07-06T10:22:41;85.30;;;82.40;;
13605;SDS011;6874;52.084;5.090;2022-07-06T10:25:07;90.67;;;87.57;;
13605;SDS011;6874;52.084;5.090;2022-07-06T10:27:33;95.00;;;91.77;;
13605;SDS011;6874;52.084;5.090;2022-07-06T10:30:01;99.10;;;95.73;;
13605;SDS011;6874;52.084;5.090;2022-07-06T10:32:27;117.00;;;113.00;;
13605;SDS011;6874;52.084;5.090;2022-07-06T10:34:53;113.60;;;109.67;;
13605;SDS011;6874;52.084;5.090;2022-07-06T10:37:26;91.90;;;88.80;;
13605;SDS011;6874;52.084;5.090;2022-07-06T10:39:52;79.83;;;77.20;;
13605;SDS011;6874;52.084;5.090;2022-07-06T10:45:06;53.67;;;51.93;;
13605;SDS011;6874;52.084;5.090;2022-07-06T10:47:33;63.57;;;61.47;;
13605;SDS011;6874;52.084;5.090;2022-07-06T10:50:00;75.73;;;73.23;;
13605;SDS011;6874;52.084;5.090;2022-07-06T10:57:56;68.47;;;66.27;;
13605;SDS011;6874;52.084;5.090;2022-07-06T11:00:22;70.40;;;68.13;;
13605;SDS011;6874;52.084;5.090;2022-07-06T11:02:47;75.40;;;72.97;;
13605;SDS011;6874;52.084;5.090;2022-07-06T11:08:04;59.77;;;57.80;;
13605;SDS011;6874;52.084;5.090;2022-07-06T11:10:45;46.13;;;44.60;;
13605;SDS011;6874;52.084;5.090;2022-07-06T11:13:25;26.53;;;25.67;;
13605;SDS011;6874;52.084;5.090;2022-07-06T11:15:52;31.57;;;30.57;;
13605;SDS011;6874;52.084;5.090;2022-07-06T11:18:38;41.77;;;40.37;;
13605;SDS011;6874;52.084;5.090;2022-07-06T11:23:59;40.33;;;39.03;;
13605;SDS011;6874;52.084;5.090;2022-07-06T11:26:25;42.27;;;40.87;;
13605;SDS011;6874;52.084;5.090;2022-07-06T11:28:52;50.73;;;49.03;;
13605;SDS011;6874;52.084;5.090;2022-07-06T11:31:18;57.03;;;55.13;;
13605;SDS011;6874;52.084;5.090;2022-07-06T11:33:44;57.90;;;56.00;;
13605;SDS011;6874;52.084;5.090;2022-07-06T11:36:12;62.63;;;60.57;;
13605;SDS011;6874;52.084;5.090;2022-07-06T11:38:43;61.87;;;59.80;;
13605;SDS011;6874;52.084;5.090;2022-07-06T11:41:09;60.30;;;58.30;;
13605;SDS011;6874;52.084;5.090;2022-07-06T11:43:37;58.17;;;56.23;;
13605;SDS011;6874;52.084;5.090;2022-07-06T11:46:04;49.03;;;47.40;;
13605;SDS011;6874;52.084;5.090;2022-07-06T11:48:29;68.43;;;66.13;;
13605;SDS011;6874;52.084;5.090;2022-07-06T11:50:59;77.47;;;74.87;;
13605;SDS011;6874;52.084;5.090;2022-07-06T11:53:25;73.53;;;71.07;;
13605;SDS011;6874;52.084;5.090;2022-07-06T11:55:51;86.03;;;83.13;;
13605;SDS011;6874;52.084;5.090;2022-07-06T11:58:18;86.03;;;83.13;;
13605;SDS011;6874;52.084;5.090;2022-07-06T12:01:06;81.07;;;78.37;;
13605;SDS011;6874;52.084;5.090;2022-07-06T12:03:35;78.13;;;75.53;;
13605;SDS011;6874;52.084;5.090;2022-07-06T12:06:05;72.53;;;70.13;;
13605;SDS011;6874;52.084;5.090;2022-07-06T12:08:40;59.83;;;57.83;;
13605;SDS011;6874;52.084;5.090;2022-07-06T12:11:10;62.60;;;60.57;;
13605;SDS011;6874;52.084;5.090;2022-07-06T12:13:38;54.87;;;53.07;;
13605;SDS011;6874;52.084;5.090;2022-07-06T12:16:11;52.07;;;50.37;;
13605;SDS011;6874;52.084;5.090;2022-07-06T12:18:38;47.07;;;45.57;;
13605;SDS011;6874;52.084;5.090;2022-07-06T12:21:06;39.90;;;38.63;;
13605;SDS011;6874;52.084;5.090;2022-07-06T12:26:10;33.20;;;32.13;;
13605;SDS011;6874;52.084;5.090;2022-07-06T12:28:36;38.83;;;37.60;;
13605;SDS011;6874;52.084;5.090;2022-07-06T12:31:02;45.50;;;44.07;;
13605;SDS011;6874;52.084;5.090;2022-07-06T12:33:28;75.50;;;73.10;;
13605;SDS011;6874;52.084;5.090;2022-07-06T12:35:54;81.73;;;79.13;;
13605;SDS011;6874;52.084;5.090;2022-07-06T12:38:23;62.37;;;60.40;;
13605;SDS011;6874;52.084;5.090;2022-07-06T12:40:52;97.13;;;94.07;;
13605;SDS011;6874;52.084;5.090;2022-07-06T12:48:52;116.83;;;113.17;;
13605;SDS011;6874;52.084;5.090;2022-07-06T12:51:18;150.17;;;145.47;;
13605;SDS011;6874;52.084;5.090;2022-07-06T12:53:44;268.73;;;260.43;;
13605;SDS011;6874;52.084;5.090;2022-07-06T12:56:13;406.57;;;392.73;;
13605;SDS011;6874;52.084;5.090;2022-07-06T12:58:39;429.93;;;414.80;;
13605;SDS011;6874;52.084;5.090;2022-07-06T13:01:19;402.00;;;388.77;;
13605;SDS011;6874;52.084;5.090;2022-07-06T13:03:44;435.77;;;420.87;;
13605;SDS011;6874;52.084;5.090;2022-07-06T13:06:10;484.77;;;467.33;;
13605;SDS011;6874;52.084;5.090;2022-07-06T13:08:35;510.33;;;491.27;;
13605;SDS011;6874;52.084;5.090;2022-07-06T13:11:01;535.17;;;514.27;;
13605;SDS011;6874;52.084;5.090;2022-07-06T13:13:26;508.07;;;489.13;;
13605;SDS011;6874;52.084;5.090;2022-07-06T13:15:52;525.93;;;506.03;;
13605;SDS011;6874;52.084;5.090;2022-07-06T13:18:18;545.23;;;524.17;;
13605;SDS011;6874;52.084;5.090;2022-07-06T13:20:44;555.73;;;533.90;;
13605;SDS011;6874;52.084;5.090;2022-07-06T13:23:10;570.20;;;547.43;;
13605;SDS011;6874;52.084;5.090;2022-07-06T13:25:36;564.83;;;542.70;;
13605;SDS011;6874;52.084;5.090;2022-07-06T13:28:01;548.30;;;527.73;;
13605;SDS011;6874;52.084;5.090;2022-07-06T13:30:27;531.27;;;511.63;;
13605;SDS011;6874;52.084;5.090;2022-07-06T13:32:52;527.80;;;508.53;;
13605;SDS011;6874;52.084;5.090;2022-07-06T13:35:18;536.93;;;517.07;;
13605;SDS011;6874;52.084;5.090;2022-07-06T13:37:44;493.43;;;476.00;;
13605;SDS011;6874;52.084;5.090;2022-07-06T13:40:12;303.10;;;293.27;;
13605;SDS011;6874;52.084;5.090;2022-07-06T13:42:37;300.73;;;290.53;;
13605;SDS011;6874;52.084;5.090;2022-07-06T13:45:03;378.27;;;365.17;;
13605;SDS011;6874;52.084;5.090;2022-07-06T13:47:29;425.50;;;410.63;;
13605;SDS011;6874;52.084;5.090;2022-07-06T13:49:54;393.63;;;379.97;;
13605;SDS011;6874;52.084;5.090;2022-07-06T13:52:20;364.57;;;352.10;;
13605;SDS011;6874;52.084;5.090;2022-07-06T13:54:46;366.03;;;353.47;;
13605;SDS011;6874;52.084;5.090;2022-07-06T13:57:11;388.03;;;374.60;;
13605;SDS011;6874;52.084;5.090;2022-07-06T13:59:36;413.33;;;399.00;;
13605;SDS011;6874;52.084;5.090;2022-07-06T14:02:02;385.67;;;372.40;;
13605;SDS011;6874;52.084;5.090;2022-07-06T14:04:28;368.57;;;356.10;;
13605;SDS011;6874;52.084;5.090;2022-07-06T14:06:53;380.17;;;367.47;;
13605;SDS011;6874;52.084;5.090;2022-07-06T14:09:19;315.50;;;305.37;;
13605;SDS011;6874;52.084;5.090;2022-07-06T14:11:45;263.10;;;254.93;;
13605;SDS011;6874;52.084;5.090;2022-07-06T14:14:10;248.20;;;240.50;;
13605;SDS011;6874;52.084;5.090;2022-07-06T14:16:36;213.93;;;207.20;;
13605;SDS011;6874;52.084;5.090;2022-07-06T14:19:02;228.50;;;221.40;;
13605;SDS011;6874;52.084;5.090;2022-07-06T14:21:27;235.17;;;227.83;;
13605;SDS011;6874;52.084;5.090;2022-07-06T14:23:53;240.67;;;233.20;;
13605;SDS011;6874;52.084;5.090;2022-07-06T14:26:19;238.33;;;230.93;;
13605;SDS011;6874;52.084;5.090;2022-07-06T14:28:45;203.13;;;196.77;;
13605;SDS011;6874;52.084;5.090;2022-07-06T14:31:10;207.90;;;201.43;;
13605;SDS011;6874;52.084;5.090;2022-07-06T14:33:36;201.43;;;195.13;;
13605;SDS011;6874;52.084;5.090;2022-07-06T14:36:01;178.33;;;172.73;;
13605;SDS011;6874;52.084;5.090;2022-07-06T14:38:28;182.10;;;176.40;;
13605;SDS011;6874;52.084;5.090;2022-07-06T14:40:53;204.63;;;198.33;;
13605;SDS011;6874;52.084;5.090;2022-07-06T14:43:19;207.40;;;200.93;;
13605;SDS011;6874;52.084;5.090;2022-07-06T14:45:45;215.57;;;208.90;;
13605;SDS011;6874;52.084;5.090;2022-07-06T14:48:11;216.43;;;209.73;;
13605;SDS011;6874;52.084;5.090;2022-07-06T14:50:37;210.13;;;203.63;;